createdAt,value
2023-05-20T00:00:45.000Z,12.5
2023-05-20T00:01:56.000Z,12.5
2023-05-20T00:03:08.000Z,13.5
2023-05-20T00:04:20.000Z,13.2
2023-05-20T00:05:33.000Z,12.8
2023-05-20T00:06:45.000Z,12.8
2023-05-20T00:07:57.000Z,13.2
2023-05-20T00:09:09.000Z,12.5
2023-05-20T00:10:21.000Z,12.2
2023-05-20T00:11:33.000Z,12.5
2023-05-20T00:12:46.000Z,12.8
2023-05-20T00:13:58.000Z,12.8
2023-05-20T00:15:10.000Z,13.5
2023-05-20T00:16:22.000Z,12.5
2023-05-20T00:17:33.000Z,11.9
2023-05-20T00:18:46.000Z,13.2
2023-05-20T00:19:58.000Z,12.8
2023-05-20T00:21:10.000Z,12.8
2023-05-20T00:22:22.000Z,12.8
2023-05-20T00:23:34.000Z,12.5
2023-05-20T00:24:47.000Z,12.5
2023-05-20T00:25:59.000Z,13.8
2023-05-20T00:27:11.000Z,13.2
2023-05-20T00:28:23.000Z,12.8
2023-05-20T00:29:35.000Z,12.8
2023-05-20T00:30:47.000Z,12.8
2023-05-20T00:32:00.000Z,12.5
2023-05-20T00:33:12.000Z,12.8
2023-05-20T00:34:23.000Z,12.8
2023-05-20T00:35:35.000Z,12.5
2023-05-20T00:36:47.000Z,12.5
2023-05-20T00:38:00.000Z,12.5
2023-05-20T00:39:12.000Z,12.5
2023-05-20T00:40:24.000Z,12.5
2023-05-20T00:41:36.000Z,12.5
2023-05-20T00:42:48.000Z,11.9
2023-05-20T00:44:00.000Z,12.5
2023-05-20T00:45:13.000Z,12.2
2023-05-20T00:46:25.000Z,12.5
2023-05-20T00:47:37.000Z,12.8
2023-05-20T00:48:49.000Z,12.8
2023-05-20T00:50:00.000Z,13.2
2023-05-20T00:51:13.000Z,12.8
2023-05-20T00:52:25.000Z,12.5
2023-05-20T00:53:37.000Z,12.2
2023-05-20T00:54:49.000Z,12.8
2023-05-20T00:56:01.000Z,12.5
2023-05-20T00:57:14.000Z,12.2
2023-05-20T00:58:26.000Z,13.5
2023-05-20T00:59:38.000Z,11.9
2023-05-20T01:00:50.000Z,12.8
2023-05-20T01:02:02.000Z,11.9
2023-05-20T01:03:14.000Z,12.5
2023-05-20T01:04:27.000Z,12.5
2023-05-20T01:05:38.000Z,12.2
2023-05-20T01:06:50.000Z,12.5
2023-05-20T01:08:02.000Z,12.5
2023-05-20T01:09:13.000Z,12.5
2023-05-20T01:10:26.000Z,12.8
2023-05-20T01:11:38.000Z,11.6
2023-05-20T01:12:50.000Z,12.2
2023-05-20T01:14:02.000Z,13.2
2023-05-20T01:15:14.000Z,12.5
2023-05-20T01:16:26.000Z,13.2
2023-05-20T01:17:39.000Z,12.5
2023-05-20T01:18:51.000Z,12.2
2023-05-20T01:20:03.000Z,13.2
2023-05-20T01:21:15.000Z,13.8
2023-05-20T01:22:27.000Z,12.8
2023-05-20T01:23:40.000Z,12.5
2023-05-20T01:24:51.000Z,12.2
2023-05-20T01:26:03.000Z,13.2
2023-05-20T01:27:15.000Z,12.8
2023-05-20T01:28:27.000Z,13.2
2023-05-20T01:29:40.000Z,13.2
2023-05-20T01:30:52.000Z,12.8
2023-05-20T01:32:04.000Z,11.6
2023-05-20T01:33:16.000Z,12.2
2023-05-20T01:34:28.000Z,11.9
2023-05-20T01:35:40.000Z,12.5
2023-05-20T01:36:53.000Z,12.8
2023-05-20T01:38:05.000Z,12.2
2023-05-20T01:39:17.000Z,12.2
2023-05-20T01:40:28.000Z,12.2
2023-05-20T01:41:40.000Z,12.8
2023-05-20T01:42:53.000Z,12.5
2023-05-20T01:44:05.000Z,13.2
2023-05-20T01:45:17.000Z,11.9
2023-05-20T01:46:29.000Z,11.2
2023-05-20T01:47:41.000Z,12.5
2023-05-20T01:48:53.000Z,12.2
2023-05-20T01:50:06.000Z,12.8
2023-05-20T01:51:18.000Z,12.8
2023-05-20T01:52:30.000Z,11.9
2023-05-20T01:53:42.000Z,11.9
2023-05-20T01:54:54.000Z,12.5
2023-05-20T01:56:06.000Z,12.5
2023-05-20T01:57:18.000Z,11.6
2023-05-20T01:58:30.000Z,11.9
2023-05-20T01:59:42.000Z,13.2
2023-05-20T02:00:54.000Z,12.5
2023-05-20T02:02:07.000Z,12.5
2023-05-20T02:03:19.000Z,10.3
2023-05-20T02:04:31.000Z,11.9
2023-05-20T02:05:43.000Z,12.2
2023-05-20T02:06:55.000Z,11.6
2023-05-20T02:08:07.000Z,10.6
2023-05-20T02:09:20.000Z,12.8
2023-05-20T02:10:32.000Z,11.2
2023-05-20T02:11:43.000Z,11.6
2023-05-20T02:12:55.000Z,12.2
2023-05-20T02:14:07.000Z,12.2
2023-05-20T02:15:20.000Z,12.2
2023-05-20T02:16:32.000Z,12.2
2023-05-20T02:17:44.000Z,11.9
2023-05-20T02:18:56.000Z,11.2
2023-05-20T02:20:08.000Z,12.5
2023-05-20T02:21:20.000Z,12.5
2023-05-20T02:22:33.000Z,12.8
2023-05-20T02:23:45.000Z,12.5
2023-05-20T02:24:57.000Z,12.5
2023-05-20T02:26:09.000Z,11.6
2023-05-20T02:27:20.000Z,12.2
2023-05-20T02:28:33.000Z,12.5
2023-05-20T02:29:45.000Z,12.8
2023-05-20T02:30:57.000Z,11.6
2023-05-20T02:32:09.000Z,12.5
2023-05-20T02:33:21.000Z,11.6
2023-05-20T02:34:33.000Z,11.6
2023-05-20T02:35:46.000Z,13.2
2023-05-20T02:36:58.000Z,12.2
2023-05-20T02:38:10.000Z,12.5
2023-05-20T02:39:22.000Z,12.2
2023-05-20T02:40:34.000Z,11.2
2023-05-20T02:41:47.000Z,12.2
2023-05-20T02:42:58.000Z,12.5
2023-05-20T02:44:10.000Z,11.6
2023-05-20T02:45:22.000Z,9.6
2023-05-20T02:46:34.000Z,12.2
2023-05-20T02:47:47.000Z,12.8
2023-05-20T02:48:59.000Z,10.3
2023-05-20T02:50:11.000Z,12.5
2023-05-20T02:51:23.000Z,12.8
2023-05-20T02:52:35.000Z,11.9
2023-05-20T02:53:47.000Z,11.6
2023-05-20T02:55:00.000Z,11.9
2023-05-20T02:56:12.000Z,12.5
2023-05-20T02:57:24.000Z,12.5
2023-05-20T02:58:35.000Z,11.9
2023-05-20T02:59:47.000Z,12.8
2023-05-20T03:01:00.000Z,12.2
2023-05-20T03:02:12.000Z,12.2
2023-05-20T03:03:24.000Z,11.6
2023-05-20T03:04:36.000Z,12.2
2023-05-20T03:05:48.000Z,12.5
2023-05-20T03:07:00.000Z,12.8
2023-05-20T03:08:13.000Z,12.2
2023-05-20T03:09:25.000Z,12.5
2023-05-20T03:10:37.000Z,12.5
2023-05-20T03:11:49.000Z,12.2
2023-05-20T03:13:01.000Z,12.5
2023-05-20T03:14:13.000Z,12.2
2023-05-20T03:15:25.000Z,12.5
2023-05-20T03:16:37.000Z,12.5
2023-05-20T03:17:49.000Z,12.5
2023-05-20T03:19:01.000Z,11.9
2023-05-20T03:20:14.000Z,11.2
2023-05-20T03:21:26.000Z,12.5
2023-05-20T03:22:38.000Z,12.2
2023-05-20T03:23:50.000Z,12.8
2023-05-20T03:25:02.000Z,12.5
2023-05-20T03:26:14.000Z,12.5
2023-05-20T03:27:27.000Z,12.2
2023-05-20T03:28:39.000Z,12.5
2023-05-20T03:29:51.000Z,12.2
2023-05-20T03:31:02.000Z,12.2
2023-05-20T03:32:14.000Z,12.2
2023-05-20T03:33:27.000Z,12.5
2023-05-20T03:34:39.000Z,12.2
2023-05-20T03:35:51.000Z,12.8
2023-05-20T03:37:03.000Z,12.2
2023-05-20T03:38:15.000Z,12.5
2023-05-20T03:39:27.000Z,12.2
2023-05-20T03:40:40.000Z,12.5
2023-05-20T03:41:52.000Z,11.6
2023-05-20T03:43:04.000Z,11.9
2023-05-20T03:44:16.000Z,12.5
2023-05-20T03:45:28.000Z,12.8
2023-05-20T03:46:40.000Z,12.2
2023-05-20T03:47:52.000Z,11.9
2023-05-20T03:49:04.000Z,11.2
2023-05-20T03:50:16.000Z,12.8
2023-05-20T03:51:28.000Z,13.2
2023-05-20T03:52:41.000Z,11.9
2023-05-20T03:53:53.000Z,13.2
2023-05-20T03:55:05.000Z,13.2
2023-05-20T03:56:17.000Z,12.2
2023-05-20T03:57:29.000Z,19
2023-05-20T03:58:41.000Z,12.5
2023-05-20T03:59:54.000Z,11.6
2023-05-20T04:01:06.000Z,11.9
2023-05-20T04:02:17.000Z,12.5
2023-05-20T04:03:29.000Z,11.9
2023-05-20T04:04:41.000Z,12.5
2023-05-20T04:05:54.000Z,12.5
2023-05-20T04:07:06.000Z,12.2
2023-05-20T04:08:18.000Z,10.3
2023-05-20T04:09:30.000Z,12.8
2023-05-20T04:10:42.000Z,12.2
2023-05-20T04:11:54.000Z,12.5
2023-05-20T04:13:07.000Z,12.8
2023-05-20T04:14:19.000Z,12.5
2023-05-20T04:15:31.000Z,12.5
2023-05-20T04:16:43.000Z,12.2
2023-05-20T04:17:54.000Z,12.5
2023-05-20T04:19:07.000Z,11.9
2023-05-20T04:20:19.000Z,12.8
2023-05-20T04:21:31.000Z,12.5
2023-05-20T04:22:43.000Z,12.8
2023-05-20T04:23:55.000Z,12.5
2023-05-20T04:25:08.000Z,12.5
2023-05-20T04:26:20.000Z,12.8
2023-05-20T04:27:32.000Z,12.5
2023-05-20T04:28:44.000Z,13.2
2023-05-20T04:29:56.000Z,12.5
2023-05-20T04:31:08.000Z,12.5
2023-05-20T04:32:21.000Z,12.5
2023-05-20T04:33:32.000Z,12.8
2023-05-20T04:34:44.000Z,12.8
2023-05-20T04:35:56.000Z,12.8
2023-05-20T04:37:08.000Z,12.5
2023-05-20T04:38:21.000Z,12.8
2023-05-20T04:39:33.000Z,12.8
2023-05-20T04:40:45.000Z,13.2
2023-05-20T04:41:57.000Z,13.2
2023-05-20T04:43:09.000Z,12.5
2023-05-20T04:44:21.000Z,13.2
2023-05-20T04:45:34.000Z,20.3
2023-05-20T04:46:46.000Z,12.5
2023-05-20T04:47:58.000Z,12.5
2023-05-20T04:49:09.000Z,12.8
2023-05-20T04:50:21.000Z,12.5
2023-05-20T04:51:34.000Z,13.2
2023-05-20T04:52:46.000Z,13.2
2023-05-20T04:53:58.000Z,13.5
2023-05-20T04:55:10.000Z,12.5
2023-05-20T04:56:22.000Z,13.5
2023-05-20T04:57:34.000Z,13.5
2023-05-20T04:58:47.000Z,12.5
2023-05-20T04:59:59.000Z,12.8
2023-05-20T05:01:11.000Z,12.8
2023-05-20T05:02:23.000Z,13.2
2023-05-20T05:03:35.000Z,13.2
2023-05-20T05:04:47.000Z,12.8
2023-05-20T05:05:59.000Z,12.8
2023-05-20T05:07:11.000Z,12.8
2023-05-20T05:08:23.000Z,13.5
2023-05-20T05:09:35.000Z,12.8
2023-05-20T05:10:47.000Z,13.2
2023-05-20T05:11:59.000Z,13.5
2023-05-20T05:13:11.000Z,12.5
2023-05-20T05:14:23.000Z,13.5
2023-05-20T05:15:35.000Z,13.5
2023-05-20T05:16:47.000Z,13.5
2023-05-20T05:18:00.000Z,13.2
2023-05-20T05:19:12.000Z,12.5
2023-05-20T05:20:24.000Z,13.2
2023-05-20T05:21:36.000Z,13.5
2023-05-20T05:22:48.000Z,13.5
2023-05-20T05:24:01.000Z,13.5
2023-05-20T05:25:13.000Z,13.2
2023-05-20T05:26:24.000Z,12.8
2023-05-20T05:27:36.000Z,12.8
2023-05-20T05:28:48.000Z,13.2
2023-05-20T05:30:01.000Z,13.8
2023-05-20T05:31:13.000Z,13.5
2023-05-20T05:32:25.000Z,13.2
2023-05-20T05:33:37.000Z,14.1
2023-05-20T05:34:49.000Z,12.8
2023-05-20T05:36:01.000Z,13.8
2023-05-20T05:37:14.000Z,13.5
2023-05-20T05:38:26.000Z,13.5
2023-05-20T05:39:38.000Z,13.8
2023-05-20T05:40:50.000Z,13.2
2023-05-20T05:42:01.000Z,13.8
2023-05-20T05:43:14.000Z,13.8
2023-05-20T05:44:26.000Z,13.2
2023-05-20T05:45:38.000Z,12.5
2023-05-20T05:46:50.000Z,13.8
2023-05-20T05:48:02.000Z,12.8
2023-05-20T05:49:14.000Z,14.5
2023-05-20T05:50:27.000Z,13.2
2023-05-20T05:51:39.000Z,13.5
2023-05-20T05:52:51.000Z,13.5
2023-05-20T05:54:03.000Z,13.5
2023-05-20T05:55:15.000Z,13.8
2023-05-20T05:56:28.000Z,13.8
2023-05-20T05:57:39.000Z,13.2
2023-05-20T05:58:51.000Z,13.5
2023-05-20T06:00:03.000Z,13.5
2023-05-20T06:01:15.000Z,13.8
2023-05-20T06:02:28.000Z,14.5
2023-05-20T06:03:40.000Z,14.1
2023-05-20T06:04:52.000Z,14.1
2023-05-20T06:06:04.000Z,14.8
2023-05-20T06:07:16.000Z,15.1
2023-05-20T06:08:28.000Z,13.8
2023-05-20T06:09:41.000Z,14.1
2023-05-20T06:10:53.000Z,14.5
2023-05-20T06:12:05.000Z,14.5
2023-05-20T06:13:16.000Z,14.1
2023-05-20T06:14:28.000Z,15.1
2023-05-20T06:15:41.000Z,15.1
2023-05-20T06:16:53.000Z,15.1
2023-05-20T06:18:05.000Z,15.4
2023-05-20T06:19:17.000Z,14.8
2023-05-20T06:20:29.000Z,14.8
2023-05-20T06:21:41.000Z,14.5
2023-05-20T06:22:54.000Z,14.8
2023-05-20T06:24:06.000Z,14.5
2023-05-20T06:25:18.000Z,14.5
2023-05-20T06:26:30.000Z,14.8
2023-05-20T06:27:42.000Z,14.8
2023-05-20T06:28:54.000Z,14.5
2023-05-20T06:30:06.000Z,14.8
2023-05-20T06:31:18.000Z,14.1
2023-05-20T06:32:30.000Z,15.1
2023-05-20T06:33:42.000Z,14.1
2023-05-20T06:34:55.000Z,15.1
2023-05-20T06:36:07.000Z,14.8
2023-05-20T06:37:19.000Z,14.5
2023-05-20T06:38:31.000Z,14.8
2023-05-20T06:39:43.000Z,13.8
2023-05-20T06:40:55.000Z,14.5
2023-05-20T06:42:08.000Z,14.5
2023-05-20T06:43:20.000Z,14.8
2023-05-20T06:44:31.000Z,14.5
2023-05-20T06:45:43.000Z,13.5
2023-05-20T06:46:55.000Z,14.8
2023-05-20T06:48:08.000Z,15.1
2023-05-20T06:49:20.000Z,14.1
2023-05-20T06:50:32.000Z,15.4
2023-05-20T06:51:44.000Z,14.1
2023-05-20T06:52:56.000Z,14.8
2023-05-20T06:54:08.000Z,14.5
2023-05-20T06:55:21.000Z,14.5
2023-05-20T06:56:33.000Z,14.1
2023-05-20T06:57:45.000Z,14.1
2023-05-20T06:58:57.000Z,14.8
2023-05-20T07:00:08.000Z,14.8
2023-05-20T07:01:21.000Z,14.8
2023-05-20T07:02:33.000Z,14.5
2023-05-20T07:03:45.000Z,14.5
2023-05-20T07:04:57.000Z,14.8
2023-05-20T07:06:09.000Z,14.1
2023-05-20T07:07:22.000Z,12.5
2023-05-20T07:08:34.000Z,13.2
2023-05-20T07:09:46.000Z,14.5
2023-05-20T07:10:58.000Z,14.5
2023-05-20T07:12:10.000Z,14.8
2023-05-20T07:13:22.000Z,14.8
2023-05-20T07:14:35.000Z,14.8
2023-05-20T07:15:46.000Z,14.8
2023-05-20T07:16:58.000Z,14.1
2023-05-20T07:18:10.000Z,15.4
2023-05-20T07:19:22.000Z,14.8
2023-05-20T07:20:35.000Z,14.8
2023-05-20T07:21:47.000Z,14.8
2023-05-20T07:22:59.000Z,14.8
2023-05-20T07:24:11.000Z,15.1
2023-05-20T07:25:23.000Z,14.1
2023-05-20T07:26:35.000Z,14.8
2023-05-20T07:27:48.000Z,15.4
2023-05-20T07:29:00.000Z,15.1
2023-05-20T07:30:12.000Z,15.1
2023-05-20T07:31:23.000Z,14.8
2023-05-20T07:32:35.000Z,14.8
2023-05-20T07:33:48.000Z,16.1
2023-05-20T07:35:00.000Z,15.1
2023-05-20T07:36:12.000Z,14.1
2023-05-20T07:37:24.000Z,14.8
2023-05-20T07:38:36.000Z,15.4
2023-05-20T07:39:48.000Z,14.5
2023-05-20T07:41:01.000Z,14.8
2023-05-20T07:42:13.000Z,14.1
2023-05-20T07:43:25.000Z,14.5
2023-05-20T07:44:37.000Z,14.8
2023-05-20T07:45:49.000Z,22.2
2023-05-20T07:47:01.000Z,15.1
2023-05-20T07:48:13.000Z,14.8
2023-05-20T07:49:25.000Z,14.1
2023-05-20T07:50:37.000Z,14.8
2023-05-20T07:51:49.000Z,15.7
2023-05-20T07:53:02.000Z,15.1
2023-05-20T07:54:14.000Z,13.8
2023-05-20T07:55:26.000Z,15.1
2023-05-20T07:56:38.000Z,14.1
2023-05-20T07:57:50.000Z,14.5
2023-05-20T07:59:02.000Z,13.2
2023-05-20T08:00:15.000Z,14.1
2023-05-20T08:01:27.000Z,14.5
2023-05-20T08:02:38.000Z,15.4
2023-05-20T08:03:50.000Z,14.1
2023-05-20T08:05:02.000Z,14.5
2023-05-20T08:06:15.000Z,14.8
2023-05-20T08:07:27.000Z,14.5
2023-05-20T08:08:39.000Z,14.8
2023-05-20T08:09:51.000Z,14.8
2023-05-20T08:11:03.000Z,14.8
2023-05-20T08:12:15.000Z,14.8
2023-05-20T08:13:28.000Z,14.8
2023-05-20T08:14:40.000Z,14.8
2023-05-20T08:15:52.000Z,14.8
2023-05-20T08:17:04.000Z,15.1
2023-05-20T08:18:15.000Z,14.5
2023-05-20T08:19:28.000Z,14.8
2023-05-20T08:20:40.000Z,14.5
2023-05-20T08:21:52.000Z,14.8
2023-05-20T08:23:04.000Z,19
2023-05-20T08:24:16.000Z,14.5
2023-05-20T08:25:29.000Z,15.7
2023-05-20T08:26:41.000Z,14.1
2023-05-20T08:27:53.000Z,14.8
2023-05-20T08:29:05.000Z,15.1
2023-05-20T08:30:17.000Z,14.8
2023-05-20T08:31:29.000Z,14.8
2023-05-20T08:32:42.000Z,15.7
2023-05-20T08:33:53.000Z,15.7
2023-05-20T08:35:05.000Z,15.1
2023-05-20T08:36:17.000Z,15.1
2023-05-20T08:37:29.000Z,14.5
2023-05-20T08:38:42.000Z,15.1
2023-05-20T08:39:54.000Z,14.5
2023-05-20T08:41:06.000Z,15.1
2023-05-20T08:42:18.000Z,15.7
2023-05-20T08:43:30.000Z,16.1
2023-05-20T08:44:42.000Z,14.8
2023-05-20T08:45:55.000Z,15.1
2023-05-20T08:47:07.000Z,16.4
2023-05-20T08:48:19.000Z,15.7
2023-05-20T08:49:30.000Z,15.4
2023-05-20T08:50:42.000Z,15.7
2023-05-20T08:51:55.000Z,15.7
2023-05-20T08:53:07.000Z,16.4
2023-05-20T08:54:19.000Z,16.1
2023-05-20T08:55:31.000Z,16.1
2023-05-20T08:56:43.000Z,16.1
2023-05-20T08:57:56.000Z,15.7
2023-05-20T08:59:08.000Z,15.7
2023-05-20T09:00:20.000Z,16.4
2023-05-20T09:01:32.000Z,16.4
2023-05-20T09:02:44.000Z,16.1
2023-05-20T09:03:56.000Z,16.1
2023-05-20T09:05:08.000Z,16.7
2023-05-20T09:06:20.000Z,15.7
2023-05-20T09:07:32.000Z,16.1
2023-05-20T09:08:44.000Z,16.7
2023-05-20T09:09:56.000Z,16.7
2023-05-20T09:11:09.000Z,16.1
2023-05-20T09:12:20.000Z,16.4
2023-05-20T09:13:32.000Z,16.4
2023-05-20T09:14:44.000Z,16.4
2023-05-20T09:15:56.000Z,16.4
2023-05-20T09:17:09.000Z,16.7
2023-05-20T09:18:21.000Z,16.4
2023-05-20T09:19:33.000Z,17.4
2023-05-20T09:20:45.000Z,17
2023-05-20T09:21:57.000Z,17.4
2023-05-20T09:23:09.000Z,17
2023-05-20T09:24:22.000Z,17.7
2023-05-20T09:25:34.000Z,17.4
2023-05-20T09:26:46.000Z,18
2023-05-20T09:27:57.000Z,18.3
2023-05-20T09:29:09.000Z,18.3
2023-05-20T09:30:22.000Z,17.7
2023-05-20T09:31:34.000Z,18.6
2023-05-20T09:32:46.000Z,19.3
2023-05-20T09:33:58.000Z,18.6
2023-05-20T09:35:10.000Z,18.6
2023-05-20T09:36:22.000Z,18.3
2023-05-20T09:37:35.000Z,17.7
2023-05-20T09:38:47.000Z,18
2023-05-20T09:39:59.000Z,18
2023-05-20T09:41:11.000Z,18.3
2023-05-20T09:42:23.000Z,18.3
2023-05-20T09:43:35.000Z,18
2023-05-20T09:44:47.000Z,18.3
2023-05-20T09:45:59.000Z,17.7
2023-05-20T09:47:11.000Z,18.6
2023-05-20T09:48:23.000Z,18.3
2023-05-20T09:49:35.000Z,18
2023-05-20T09:50:48.000Z,18
2023-05-20T09:52:00.000Z,18.3
2023-05-20T09:53:12.000Z,18
2023-05-20T09:54:24.000Z,17.4
2023-05-20T09:55:36.000Z,18.3
2023-05-20T09:56:49.000Z,18.3
2023-05-20T09:58:01.000Z,19.3
2023-05-20T09:59:12.000Z,19
2023-05-20T10:00:24.000Z,19.3
2023-05-20T10:01:36.000Z,19.3
2023-05-20T10:02:49.000Z,19.6
2023-05-20T10:04:01.000Z,19.6
2023-05-20T10:05:13.000Z,20.6
2023-05-20T10:06:25.000Z,19.6
2023-05-20T10:07:37.000Z,19.9
2023-05-20T10:08:49.000Z,19.9
2023-05-20T10:10:02.000Z,19.6
2023-05-20T10:11:14.000Z,19.6
2023-05-20T10:12:26.000Z,19
2023-05-20T10:13:38.000Z,19
2023-05-20T10:14:49.000Z,19
2023-05-20T10:16:02.000Z,18.3
2023-05-20T10:17:14.000Z,18.3
2023-05-20T10:18:26.000Z,18.3
2023-05-20T10:19:38.000Z,18
2023-05-20T10:20:50.000Z,17.7
2023-05-20T10:22:02.998Z,18
2023-05-20T10:23:15.000Z,18.3
2023-05-20T10:24:27.000Z,19
2023-05-20T10:25:39.000Z,19.3
2023-05-20T10:26:51.000Z,19
2023-05-20T10:28:03.000Z,21.2
2023-05-20T10:29:16.000Z,21.9
2023-05-20T10:30:27.000Z,21.5
2023-05-20T10:31:39.000Z,21.2
2023-05-20T10:32:51.000Z,20.9
2023-05-20T10:34:03.000Z,19.9
2023-05-20T10:35:16.000Z,20.6
2023-05-20T10:36:28.000Z,20.9
2023-05-20T10:37:40.000Z,20.3
2023-05-20T10:38:52.000Z,19.6
2023-05-20T10:40:04.000Z,19
2023-05-20T10:41:16.000Z,19.3
2023-05-20T10:42:29.000Z,20.3
2023-05-20T10:43:41.000Z,21.5
2023-05-20T10:44:53.000Z,22.2
2023-05-20T10:46:04.000Z,22.2
2023-05-20T10:47:16.000Z,22.5
2023-05-20T10:48:29.000Z,22.2
2023-05-20T10:49:41.000Z,21.9
2023-05-20T10:50:53.000Z,20.9
2023-05-20T10:52:05.000Z,20.3
2023-05-20T10:53:17.000Z,20.3
2023-05-20T10:54:30.000Z,19.6
2023-05-20T10:55:42.000Z,19.3
2023-05-20T10:56:54.000Z,19.3
2023-05-20T10:58:06.000Z,19.9
2023-05-20T10:59:18.000Z,19
2023-05-20T11:00:30.000Z,19.9
2023-05-20T11:01:42.000Z,18.3
2023-05-20T11:02:54.000Z,18.6
2023-05-20T11:04:06.000Z,19
2023-05-20T11:05:18.000Z,25.7
2023-05-20T11:06:30.000Z,24.8
2023-05-20T11:07:43.000Z,18.3
2023-05-20T11:08:55.000Z,18.3
2023-05-20T11:10:07.000Z,18.6
2023-05-20T11:11:19.000Z,18.3
2023-05-20T11:12:31.000Z,19
2023-05-20T11:13:43.000Z,20.3
2023-05-20T11:14:56.000Z,20.9
2023-05-20T11:16:08.000Z,20.9
2023-05-20T11:17:19.000Z,20.6
2023-05-20T11:18:31.000Z,20.9
2023-05-20T11:19:43.000Z,20.9
2023-05-20T11:20:56.000Z,21.5
2023-05-20T11:22:08.000Z,22.2
2023-05-20T11:23:20.000Z,22.5
2023-05-20T11:24:32.000Z,22.2
2023-05-20T11:25:44.000Z,21.5
2023-05-20T11:26:57.000Z,22.2
2023-05-20T11:28:09.000Z,22.5
2023-05-20T11:29:21.000Z,22.5
2023-05-20T11:30:33.000Z,23.5
2023-05-20T11:31:45.000Z,22.5
2023-05-20T11:32:57.000Z,22.8
2023-05-20T11:34:09.000Z,22.2
2023-05-20T11:35:21.000Z,22.8
2023-05-20T11:36:33.000Z,22.2
2023-05-20T11:37:45.000Z,23.2
2023-05-20T11:38:57.000Z,22.8
2023-05-20T11:40:10.000Z,22.2
2023-05-20T11:41:22.000Z,21.9
2023-05-20T11:42:34.000Z,22.2
2023-05-20T11:43:46.000Z,22.5
2023-05-20T11:44:58.000Z,22.8
2023-05-20T11:46:10.000Z,23.5
2023-05-20T11:47:23.000Z,24.1
2023-05-20T11:48:35.000Z,23.8
2023-05-20T11:49:46.000Z,24.1
2023-05-20T11:50:58.000Z,23.2
2023-05-20T11:52:10.000Z,23.5
2023-05-20T11:53:23.000Z,22.2
2023-05-20T11:54:35.000Z,20.9
2023-05-20T11:55:47.000Z,21.2
2023-05-20T11:56:59.000Z,20.9
2023-05-20T11:58:11.000Z,20.3
2023-05-20T11:59:24.000Z,20.9
2023-05-20T12:00:36.000Z,20.6
2023-05-20T12:01:48.000Z,19.6
2023-05-20T12:03:00.000Z,19.9
2023-05-20T12:04:12.000Z,19.9
2023-05-20T12:05:23.000Z,19.9
2023-05-20T12:06:36.000Z,19.9
2023-05-20T12:07:48.000Z,19.6
2023-05-20T12:09:00.000Z,20.3
2023-05-20T12:10:12.000Z,20.3
2023-05-20T12:11:24.000Z,19.6
2023-05-20T12:12:37.000Z,19.9
2023-05-20T12:13:49.000Z,19.9
2023-05-20T12:15:01.000Z,19.9
2023-05-20T12:16:13.000Z,20.6
2023-05-20T12:17:25.000Z,20.9
2023-05-20T12:18:38.000Z,19.9
2023-05-20T12:19:50.000Z,19.6
2023-05-20T12:21:01.000Z,19.9
2023-05-20T12:22:13.000Z,19.6
2023-05-20T12:23:25.000Z,20.3
2023-05-20T12:24:37.000Z,19.9
2023-05-20T12:25:50.000Z,21.5
2023-05-20T12:27:02.000Z,21.2
2023-05-20T12:28:14.000Z,22.5
2023-05-20T12:29:26.000Z,21.5
2023-05-20T12:30:38.000Z,21.9
2023-05-20T12:31:51.000Z,21.9
2023-05-20T12:33:03.000Z,21.9
2023-05-20T12:34:15.000Z,22.5
2023-05-20T12:35:27.000Z,22.5
2023-05-20T12:36:38.000Z,21.9
2023-05-20T12:37:50.000Z,21.5
2023-05-20T12:39:03.000Z,22.2
2023-05-20T12:40:15.000Z,29.9
2023-05-20T12:41:27.000Z,22.5
2023-05-20T12:42:39.000Z,22.2
2023-05-20T12:43:51.000Z,21.9
2023-05-20T12:45:04.000Z,22.2
2023-05-20T12:46:16.000Z,22.2
2023-05-20T12:47:28.000Z,22.2
2023-05-20T12:48:40.000Z,22.2
2023-05-20T12:49:52.000Z,21.5
2023-05-20T12:51:05.000Z,22.2
2023-05-20T12:52:16.000Z,21.5
2023-05-20T12:53:28.000Z,21.9
2023-05-20T12:54:40.000Z,21.9
2023-05-20T12:55:52.000Z,21.5
2023-05-20T12:57:04.000Z,21.5
2023-05-20T12:58:17.000Z,20.9
2023-05-20T12:59:29.000Z,20.3
2023-05-20T13:00:41.000Z,20.9
2023-05-20T13:01:53.000Z,21.2
2023-05-20T13:03:05.000Z,21.9
2023-05-20T13:04:18.000Z,20.9
2023-05-20T13:05:30.000Z,22.5
2023-05-20T13:06:42.000Z,21.5
2023-05-20T13:07:53.000Z,21.2
2023-05-20T13:09:05.000Z,21.5
2023-05-20T13:10:18.000Z,21.2
2023-05-20T13:11:30.000Z,21.2
2023-05-20T13:12:42.000Z,20.9
2023-05-20T13:13:53.000Z,21.2
2023-05-20T13:15:05.000Z,21.5
2023-05-20T13:16:17.000Z,20.6
2023-05-20T13:17:30.000Z,21.2
2023-05-20T13:18:42.000Z,21.2
2023-05-20T13:19:54.000Z,20.9
2023-05-20T13:21:06.000Z,27.7
2023-05-20T13:22:18.000Z,20.6
2023-05-20T13:23:31.000Z,20.3
2023-05-20T13:24:43.000Z,20.9
2023-05-20T13:25:55.000Z,20.9
2023-05-20T13:27:07.000Z,21.5
2023-05-20T13:28:19.000Z,20.9
2023-05-20T13:29:31.000Z,20.9
2023-05-20T13:30:43.000Z,27.7
2023-05-20T13:31:55.000Z,20.9
2023-05-20T13:33:07.000Z,19.9
2023-05-20T13:34:19.000Z,20.6
2023-05-20T13:35:31.000Z,21.9
2023-05-20T13:36:44.000Z,21.2
2023-05-20T13:37:56.000Z,20.6
2023-05-20T13:39:08.000Z,20.9
2023-05-20T13:40:20.000Z,21.2
2023-05-20T13:41:32.000Z,20.6
2023-05-20T13:42:45.000Z,20.9
2023-05-20T13:43:57.000Z,20.9
2023-05-20T13:45:08.000Z,21.2
2023-05-20T13:46:20.000Z,19.9
2023-05-20T13:47:32.000Z,20.6
2023-05-20T13:48:44.000Z,20.9
2023-05-20T13:49:57.000Z,20.3
2023-05-20T13:51:09.000Z,20.6
2023-05-20T13:52:21.000Z,20.3
2023-05-20T13:53:33.000Z,20.6
2023-05-20T13:54:45.000Z,19.9
2023-05-20T13:55:58.000Z,19.9
2023-05-20T13:57:10.000Z,20.6
2023-05-20T13:58:22.000Z,20.6
2023-05-20T13:59:34.000Z,20.9
2023-05-20T14:00:45.000Z,20.9
2023-05-20T14:01:58.000Z,21.2
2023-05-20T14:03:10.000Z,20.3
2023-05-20T14:04:22.000Z,20.9
2023-05-20T14:06:46.000Z,20.9
2023-05-20T14:07:58.000Z,20.6
2023-05-20T14:09:11.000Z,20.6
2023-05-20T14:10:23.000Z,20.3
2023-05-20T14:11:35.000Z,20.6
2023-05-20T14:12:47.000Z,19.9
2023-05-20T14:13:59.000Z,21.2
2023-05-20T14:15:12.000Z,22.8
2023-05-20T14:16:23.000Z,20.6
2023-05-20T14:17:35.000Z,20.6
2023-05-20T14:18:47.000Z,20.6
2023-05-20T14:19:59.000Z,19.9
2023-05-20T14:21:11.000Z,21.5
2023-05-20T14:22:24.000Z,20.3
2023-05-20T14:23:36.000Z,20.3
2023-05-20T14:24:48.000Z,20.3
2023-05-20T14:26:00.000Z,20.6
2023-05-20T14:27:12.000Z,20.9
2023-05-20T14:28:25.000Z,20.6
2023-05-20T14:29:37.000Z,20.6
2023-05-20T14:30:49.000Z,20.6
2023-05-20T14:32:00.000Z,19
2023-05-20T14:33:12.000Z,19.9
2023-05-20T14:34:25.000Z,21.5
2023-05-20T14:35:37.000Z,20.9
2023-05-20T14:36:49.000Z,21.2
2023-05-20T14:38:01.000Z,20.6
2023-05-20T14:39:13.000Z,21.2
2023-05-20T14:40:25.000Z,21.5
2023-05-20T14:41:38.000Z,20.9
2023-05-20T14:42:50.000Z,19.6
2023-05-20T14:44:02.000Z,20.9
2023-05-20T14:45:14.000Z,21.2
2023-05-20T14:46:26.000Z,21.5
2023-05-20T14:47:38.000Z,20.9
2023-05-20T14:48:50.000Z,20.3
2023-05-20T14:50:02.000Z,20.9
2023-05-20T14:51:14.000Z,20.9
2023-05-20T14:52:26.000Z,21.2
2023-05-20T14:53:39.000Z,20.6
2023-05-20T14:54:51.000Z,20.9
2023-05-20T14:56:03.000Z,20.9
2023-05-20T14:57:15.000Z,21.9
2023-05-20T14:58:27.000Z,20.9
2023-05-20T14:59:39.000Z,21.5
2023-05-20T15:00:52.000Z,20.6
2023-05-20T15:02:04.000Z,20.6
2023-05-20T15:03:15.000Z,20.9
2023-05-20T15:04:27.000Z,21.5
2023-05-20T15:05:39.000Z,21.5
2023-05-20T15:06:52.000Z,20.9
2023-05-20T15:08:04.000Z,21.2
2023-05-20T15:09:16.000Z,20.9
2023-05-20T15:10:28.000Z,20.9
2023-05-20T15:11:40.000Z,20.9
2023-05-20T15:12:52.000Z,19.9
2023-05-20T15:14:05.000Z,21.5
2023-05-20T15:15:17.000Z,20.3
2023-05-20T15:16:29.000Z,20.9
2023-05-20T15:17:41.000Z,21.2
2023-05-20T15:18:52.000Z,21.2
2023-05-20T15:20:05.000Z,21.2
2023-05-20T15:21:17.000Z,20.3
2023-05-20T15:22:29.000Z,20.6
2023-05-20T15:23:41.000Z,20.6
2023-05-20T15:24:53.000Z,20.9
2023-05-20T15:26:06.000Z,20.9
2023-05-20T15:27:18.000Z,21.2
2023-05-20T15:28:30.000Z,20.6
2023-05-20T15:29:42.000Z,20.9
2023-05-20T15:30:54.000Z,20.9
2023-05-20T15:32:06.000Z,21.2
2023-05-20T15:33:19.000Z,20.9
2023-05-20T15:34:30.000Z,20.9
2023-05-20T15:35:42.000Z,21.2
2023-05-20T15:36:54.000Z,21.2
2023-05-20T15:38:06.000Z,21.2
2023-05-20T15:39:19.000Z,20.9
2023-05-20T15:40:31.000Z,20.9
2023-05-20T15:41:43.000Z,21.9
2023-05-20T15:42:55.000Z,21.2
2023-05-20T15:44:07.000Z,20.9
2023-05-20T15:45:20.000Z,21.5
2023-05-20T15:46:32.000Z,20.6
2023-05-20T15:47:44.000Z,20.9
2023-05-20T15:48:56.000Z,20.9
2023-05-20T15:50:07.000Z,21.2
2023-05-20T15:51:19.000Z,20.9
2023-05-20T15:52:32.000Z,20.9
2023-05-20T15:53:44.000Z,21.5
2023-05-20T15:54:56.000Z,19.6
2023-05-20T15:56:08.000Z,21.2
2023-05-20T15:57:20.000Z,20.9
2023-05-20T15:58:33.000Z,20.9
2023-05-20T15:59:45.000Z,20.9
2023-05-20T16:00:57.000Z,20.6
2023-05-20T16:02:09.000Z,20.6
2023-05-20T16:03:21.000Z,21.2